Bruno, Nebraska
Current Conditions -  °F | °C
As of 4:15 AM on Sunday 26 Oct 2014 (Local Time) from KAHQ Reporting Station
Clear Clear  
Wind Chill: 52°   Ceiling: Unl
Heat Index: 52°   Visibility: 10mi
Dew Point: 41°   Wind: 9mph
Humidity: 66%   Direction: 110°ESE
Pressure: 29.9"   Gusts: NA
Location:  41.28°N, 96.96°W
Report Text: KAHQ 260915Z AUTO 11008KT 10SM CLR 11/05 A2990 RMK AO2 T01120050
Loading
Personal Weather Stations






























Interactive Weather Map
Tropical Storm Tracking
New forecast layout! Learn more

10-Day Weather Forecast

Advertisements
Track Severe Weather on mobile